createdAt,value
2022-12-04T00:01:10.274Z,94427.66
2022-12-04T00:03:37.548Z,94450.81
2022-12-04T00:06:14.657Z,94438.38
2022-12-04T00:08:42.733Z,94448.69
2022-12-04T00:11:10.702Z,94444.81
2022-12-04T00:13:38.571Z,94450.66
2022-12-04T00:16:07.359Z,94449.88
2022-12-04T00:18:34.685Z,94447.84
2022-12-04T00:21:04.712Z,94444.88
2022-12-04T00:23:31.774Z,94447.66
2022-12-04T00:26:09.236Z,94441.69
2022-12-04T00:28:36.152Z,94439.34
2022-12-04T00:31:10.858Z,94438.19
2022-12-04T00:33:37.563Z,94440.88
2022-12-04T00:36:07.584Z,94433.88
2022-12-04T00:38:35.096Z,94432.78
2022-12-04T00:41:01.888Z,94437.09
2022-12-04T00:43:29.174Z,94446.22
2022-12-04T00:45:56.110Z,94437.44
2022-12-04T00:48:23.018Z,94436.53
2022-12-04T00:50:49.792Z,94433.09
2022-12-04T00:53:16.373Z,94430.06
2022-12-04T00:55:43.713Z,94438.94
2022-12-04T00:58:10.908Z,94443.22
2022-12-04T01:00:39.893Z,94431.16
2022-12-04T01:03:07.121Z,94425.91
2022-12-04T01:05:42.303Z,94414.63
2022-12-04T01:08:09.826Z,94416.63
2022-12-04T01:10:39.134Z,94428.31
2022-12-04T01:13:05.862Z,94419.03
2022-12-04T01:15:32.573Z,94422.88
2022-12-04T01:17:59.103Z,94414.59
2022-12-04T01:20:25.730Z,94414.72
2022-12-04T01:22:52.211Z,94425.75
2022-12-04T01:25:18.795Z,94416.09
2022-12-04T01:27:47.487Z,94423.75
2022-12-04T01:30:14.116Z,94436.88
2022-12-04T01:32:40.646Z,94436.31
2022-12-04T01:35:07.989Z,94428.66
2022-12-04T01:37:34.572Z,94425.16
2022-12-04T01:40:01.109Z,94431.06
2022-12-04T01:42:27.667Z,94418.16
2022-12-04T01:45:31.296Z,94423.81
2022-12-04T01:48:10.857Z,94417.75
2022-12-04T01:50:37.529Z,94415.75
2022-12-04T01:53:04.052Z,94425.84
2022-12-04T01:55:31.169Z,94418.59
2022-12-04T01:57:59.342Z,94424.44
2022-12-04T02:00:25.853Z,94411.94
2022-12-04T02:02:52.936Z,94412.69
2022-12-04T02:05:21.322Z,94418.91
2022-12-04T02:07:51.356Z,94407.22
2022-12-04T02:10:18.811Z,94413.88
2022-12-04T02:12:58.182Z,94401.88
2022-12-04T02:15:53.049Z,94412.13
2022-12-04T02:18:30.877Z,94409.66
2022-12-04T02:21:03.444Z,94397.78
2022-12-04T02:23:43.257Z,94401.19
2022-12-04T02:26:15.613Z,94399.63
2022-12-04T02:28:50.022Z,94406.69
2022-12-04T02:31:24.002Z,94410.09
2022-12-04T02:33:59.843Z,94408.59
2022-12-04T02:36:30.172Z,94403.44
2022-12-04T02:39:19.804Z,94406.91
2022-12-04T02:41:56.520Z,94399.44
2022-12-04T02:44:28.158Z,94399.34
2022-12-04T02:46:58.347Z,94401.72
2022-12-04T02:49:33.460Z,94407.97
2022-12-04T02:52:00.601Z,94403.84
2022-12-04T02:54:33.438Z,94408.69
2022-12-04T02:57:02.157Z,94409.94
2022-12-04T02:59:40.837Z,94407.22
2022-12-04T03:02:25.612Z,94424.69
2022-12-04T03:04:53.574Z,94425.97
2022-12-04T03:07:46.442Z,94424.81
2022-12-04T03:10:34.621Z,94425.22
2022-12-04T03:13:24.382Z,94418.59
2022-12-04T03:15:54.695Z,94419.56
2022-12-04T03:18:26.920Z,94423.38
2022-12-04T03:20:59.041Z,94434.19
2022-12-04T03:23:32.850Z,94420.00
2022-12-04T03:26:02.794Z,94427.53
2022-12-04T03:28:34.768Z,94424.28
2022-12-04T03:31:04.680Z,94439.09
2022-12-04T03:33:38.698Z,94428.59
2022-12-04T03:36:16.765Z,94426.59
2022-12-04T03:39:33.112Z,94432.78
2022-12-04T03:42:01.326Z,94437.66
2022-12-04T03:44:34.011Z,94430.63
2022-12-04T03:47:06.705Z,94428.88
2022-12-04T03:49:41.899Z,94439.47
2022-12-04T03:52:22.476Z,94431.81
2022-12-04T03:54:50.126Z,94425.72
2022-12-04T03:57:20.649Z,94421.75
2022-12-04T03:59:55.610Z,94434.75
2022-12-04T04:02:25.307Z,94432.66
2022-12-04T04:04:55.958Z,94426.75
2022-12-04T04:07:41.823Z,94428.69
2022-12-04T04:10:14.566Z,94422.59
2022-12-04T04:13:04.364Z,94429.78
2022-12-04T04:15:56.168Z,94420.31
2022-12-04T04:18:23.047Z,94430.56
2022-12-04T04:20:57.374Z,94424.25
2022-12-04T04:23:25.870Z,94417.22
2022-12-04T04:25:53.081Z,94425.72
2022-12-04T04:28:31.102Z,94422.53
2022-12-04T04:31:05.793Z,94421.28
2022-12-04T04:33:36.564Z,94408.78
2022-12-04T04:36:49.387Z,94415.41
2022-12-04T04:39:33.928Z,94425.25
2022-12-04T04:42:13.775Z,94433.78
2022-12-04T04:44:47.332Z,94433.44
2022-12-04T04:47:20.248Z,94437.53
2022-12-04T04:49:49.072Z,94436.13
2022-12-04T04:52:17.688Z,94442.38
2022-12-04T04:54:44.775Z,94447.59
2022-12-04T04:57:11.311Z,94452.47
2022-12-04T04:59:38.178Z,94452.94
2022-12-04T05:02:04.837Z,94445.25
2022-12-04T05:04:31.382Z,94448.47
2022-12-04T05:06:57.888Z,94448.06
2022-12-04T05:09:24.468Z,94454.50
2022-12-04T05:11:51.005Z,94457.75
2022-12-04T05:14:17.483Z,94456.34
2022-12-04T05:16:44.030Z,94462.19
2022-12-04T05:19:10.535Z,94460.97
2022-12-04T05:21:37.025Z,94462.19
2022-12-04T05:24:03.570Z,94465.41
2022-12-04T05:26:30.070Z,94455.13
2022-12-04T05:28:56.564Z,94460.97
2022-12-04T05:31:23.174Z,94475.44
2022-12-04T05:33:49.706Z,94463.00
2022-12-04T05:36:18.957Z,94474.25
2022-12-04T05:38:45.574Z,94477.47
2022-12-04T05:41:12.080Z,94461.34
2022-12-04T05:43:38.569Z,94460.53
2022-12-04T05:46:07.694Z,94459.56
2022-12-04T05:48:35.377Z,94460.75
2022-12-04T05:51:09.713Z,94457.72
2022-12-04T05:53:37.587Z,94452.09
2022-12-04T05:56:05.859Z,94456.09
2022-12-04T05:58:35.522Z,94463.16
2022-12-04T06:01:10.574Z,94454.13
2022-12-04T06:03:37.351Z,94448.44
2022-12-04T06:06:04.159Z,94457.31
2022-12-04T06:08:31.989Z,94459.28
2022-12-04T06:11:01.558Z,94452.22
2022-12-04T06:13:28.145Z,94449.19
2022-12-04T06:15:54.801Z,94454.94
2022-12-04T06:18:21.501Z,94462.34
2022-12-04T06:20:48.351Z,94458.88
2022-12-04T06:23:14.921Z,94451.16
2022-12-04T06:25:41.517Z,94451.47
2022-12-04T06:28:08.464Z,94454.75
2022-12-04T06:30:35.354Z,94449.53
2022-12-04T06:33:01.920Z,94452.44
2022-12-04T06:35:28.489Z,94451.22
2022-12-04T06:37:54.997Z,94454.63
2022-12-04T06:40:22.177Z,94447.63
2022-12-04T06:42:48.817Z,94452.91
2022-12-04T06:45:15.717Z,94447.28
2022-12-04T06:47:42.315Z,94452.91
2022-12-04T06:50:09.074Z,94442.41
2022-12-04T06:52:35.725Z,94437.97
2022-12-04T06:55:02.260Z,94442.72
2022-12-04T06:57:28.745Z,94445.91
2022-12-04T06:59:55.611Z,94439.09
2022-12-04T07:02:22.329Z,94448.81
2022-12-04T07:04:53.914Z,94434.69
2022-12-04T07:07:20.473Z,94438.66
2022-12-04T07:09:47.021Z,94437.16
2022-12-04T07:12:13.522Z,94449.03
2022-12-04T07:14:40.028Z,94439.75
2022-12-04T07:17:06.591Z,94438.16
2022-12-04T07:19:33.259Z,94445.34
2022-12-04T07:21:59.721Z,94444.56
2022-12-04T07:24:26.199Z,94447.41
2022-12-04T07:26:52.765Z,94451.13
2022-12-04T07:29:19.234Z,94454.16
2022-12-04T07:31:45.760Z,94452.66
2022-12-04T07:34:12.950Z,94450.03
2022-12-04T07:36:39.794Z,94455.91
2022-12-04T07:39:06.290Z,94469.03
2022-12-04T07:41:32.792Z,94469.03
2022-12-04T07:44:00.440Z,94474.69
2022-12-04T07:46:28.177Z,94471.66
2022-12-04T07:48:55.958Z,94466.63
2022-12-04T07:51:25.404Z,94482.53
2022-12-04T07:53:52.265Z,94478.03
2022-12-04T07:56:19.272Z,94482.81
2022-12-04T07:58:46.497Z,94472.50
2022-12-04T08:01:19.113Z,94478.56
2022-12-04T08:03:48.791Z,94471.28
2022-12-04T08:06:17.985Z,94475.06
2022-12-04T08:08:44.682Z,94468.72
2022-12-04T08:11:15.236Z,94475.03
2022-12-04T08:13:41.814Z,94476.66
2022-12-04T08:16:10.191Z,94473.53
2022-12-04T08:18:36.914Z,94474.31
2022-12-04T08:21:08.971Z,94465.41
2022-12-04T08:23:36.469Z,94467.00
2022-12-04T08:26:03.879Z,94469.97
2022-12-04T08:28:30.817Z,94459.09
2022-12-04T08:31:03.685Z,94459.06
2022-12-04T08:33:30.301Z,94461.09
2022-12-04T08:35:57.060Z,94454.84
2022-12-04T08:38:23.570Z,94458.38
2022-12-04T08:40:50.066Z,94463.63
2022-12-04T08:43:16.561Z,94474.72
2022-12-04T08:45:43.162Z,94467.88
2022-12-04T08:48:09.761Z,94463.66
2022-12-04T08:50:36.225Z,94463.63
2022-12-04T08:53:02.781Z,94466.09
2022-12-04T08:55:32.767Z,94470.59
2022-12-04T08:57:59.529Z,94471.47
2022-12-04T09:00:26.392Z,94469.38
2022-12-04T09:02:52.976Z,94472.72
2022-12-04T09:05:19.775Z,94479.25
2022-12-04T09:07:46.379Z,94478.53
2022-12-04T09:10:13.026Z,94477.28
2022-12-04T09:12:39.617Z,94489.69
2022-12-04T09:15:06.860Z,94489.19
2022-12-04T09:17:35.208Z,94491.66
2022-12-04T09:20:03.001Z,94493.00
2022-12-04T09:22:45.627Z,94490.63
2022-12-04T09:25:19.695Z,94492.16
2022-12-04T09:27:46.169Z,94494.34
2022-12-04T09:30:14.150Z,94496.94
2022-12-04T09:32:40.978Z,94496.66
2022-12-04T09:35:07.856Z,94495.34
2022-12-04T09:37:34.917Z,94496.91
2022-12-04T09:40:01.396Z,94498.69
2022-12-04T09:42:46.702Z,94496.16
2022-12-04T09:45:19.029Z,94494.53
2022-12-04T09:47:48.769Z,94487.38
2022-12-04T09:50:20.145Z,94492.28
2022-12-04T09:52:59.973Z,94492.53
2022-12-04T09:55:47.783Z,94485.88
2022-12-04T09:58:20.166Z,94489.31
2022-12-04T10:00:51.957Z,94493.22
2022-12-04T10:03:21.759Z,94492.28
2022-12-04T10:06:12.747Z,94490.00
2022-12-04T10:08:42.657Z,94474.06
2022-12-04T10:11:32.849Z,94480.94
2022-12-04T10:14:02.914Z,94473.25
2022-12-04T10:16:57.968Z,94475.38
2022-12-04T10:19:33.727Z,94478.19
2022-12-04T10:22:23.259Z,94478.00
2022-12-04T10:24:54.345Z,94473.63
2022-12-04T10:27:28.242Z,94466.69
2022-12-04T10:30:16.472Z,94466.59
2022-12-04T10:32:48.400Z,94461.34
2022-12-04T10:35:22.395Z,94463.41
2022-12-04T10:37:59.396Z,94462.03
2022-12-04T10:40:30.318Z,94464.72
2022-12-04T10:43:06.238Z,94458.69
2022-12-04T10:45:35.726Z,94462.63
2022-12-04T10:48:02.479Z,94454.53
2022-12-04T10:50:29.021Z,94452.72
2022-12-04T10:52:56.881Z,94456.59
2022-12-04T10:55:37.161Z,94455.22
2022-12-04T10:58:03.719Z,94456.19
2022-12-04T11:00:35.419Z,94460.84
2022-12-04T11:03:19.910Z,94458.78
2022-12-04T11:05:54.906Z,94457.78
2022-12-04T11:08:26.459Z,94468.16
2022-12-04T11:11:01.579Z,94469.69
2022-12-04T11:13:28.441Z,94462.72
2022-12-04T11:15:56.756Z,94467.22
2022-12-04T11:18:27.623Z,94464.53
2022-12-04T11:21:07.978Z,94457.78
2022-12-04T11:23:35.140Z,94457.34
2022-12-04T11:26:05.900Z,94454.22
2022-12-04T11:28:42.122Z,94451.38
2022-12-04T11:31:11.380Z,94452.31
2022-12-04T11:34:01.594Z,94446.69
2022-12-04T11:36:31.362Z,94455.50
2022-12-04T11:39:20.659Z,94444.59
2022-12-04T11:41:47.427Z,94440.59
2022-12-04T11:44:35.281Z,94445.75
2022-12-04T11:47:17.513Z,94449.97
2022-12-04T11:49:44.122Z,94449.97
2022-12-04T11:52:25.121Z,94451.84
2022-12-04T11:55:08.073Z,94459.75
2022-12-04T11:57:50.028Z,94465.50
2022-12-04T12:00:21.312Z,94452.38
2022-12-04T12:03:10.431Z,94453.81
2022-12-04T12:05:42.840Z,94453.41
2022-12-04T12:08:48.109Z,94440.31
2022-12-04T12:11:18.710Z,94436.41
2022-12-04T12:14:13.493Z,94433.13
2022-12-04T12:17:08.942Z,94430.03
2022-12-04T12:20:08.295Z,94440.91
2022-12-04T12:23:10.413Z,94441.28
2022-12-04T12:26:04.640Z,94425.56
2022-12-04T12:28:37.415Z,94427.28
2022-12-04T12:31:22.768Z,94417.84
2022-12-04T12:33:56.163Z,94420.34
2022-12-04T12:36:26.793Z,94418.63
2022-12-04T12:39:05.687Z,94413.06
2022-12-04T12:41:37.483Z,94403.28
2022-12-04T12:44:05.786Z,94406.34
2022-12-04T12:46:59.124Z,94388.75
2022-12-04T12:49:47.867Z,94390.50
2022-12-04T12:52:21.553Z,94397.94
2022-12-04T12:54:48.908Z,94390.13
2022-12-04T12:57:25.547Z,94391.94
2022-12-04T13:00:06.721Z,94388.97
2022-12-04T13:02:43.430Z,94389.44
2022-12-04T13:05:12.760Z,94390.00
2022-12-04T13:07:47.518Z,94394.22
2022-12-04T13:10:21.736Z,94387.47
2022-12-04T13:12:53.064Z,94379.44
2022-12-04T13:15:22.696Z,94381.16
2022-12-04T13:17:50.875Z,94370.06
2022-12-04T13:20:25.357Z,94362.47
2022-12-04T13:23:11.487Z,94358.28
2022-12-04T13:25:59.296Z,94357.34
2022-12-04T13:28:54.618Z,94365.59
2022-12-04T13:31:34.073Z,94367.69
2022-12-04T13:34:57.465Z,94361.09
2022-12-04T13:37:23.931Z,94356.25
2022-12-04T13:40:14.993Z,94357.78
2022-12-04T13:42:41.922Z,94365.75
2022-12-04T13:45:26.097Z,94363.19
2022-12-04T13:48:00.717Z,94355.53
2022-12-04T13:50:32.972Z,94363.03
2022-12-04T13:52:59.497Z,94376.00
2022-12-04T13:55:33.106Z,94375.06
2022-12-04T13:58:32.799Z,94370.63
2022-12-04T14:01:23.822Z,94375.53
2022-12-04T14:03:51.813Z,94386.91
2022-12-04T14:06:26.647Z,94384.47
2022-12-04T14:09:00.733Z,94390.41
2022-12-04T14:11:28.582Z,94386.84
2022-12-04T14:13:56.929Z,94388.88
2022-12-04T14:16:24.799Z,94379.38
2022-12-04T14:19:01.812Z,94385.19
2022-12-04T14:21:45.696Z,94372.91
2022-12-04T14:24:38.830Z,94375.31
2022-12-04T14:27:32.271Z,94370.72
2022-12-04T14:29:59.094Z,94366.50
2022-12-04T14:32:27.933Z,94363.41
2022-12-04T14:34:55.159Z,94357.63
2022-12-04T14:37:27.111Z,94351.84
2022-12-04T14:39:56.624Z,94351.56
2022-12-04T14:42:26.574Z,94360.97
2022-12-04T14:45:00.239Z,94366.63
2022-12-04T14:47:35.641Z,94361.66
2022-12-04T14:50:23.285Z,94369.16
2022-12-04T14:53:23.504Z,94380.25
2022-12-04T14:56:16.064Z,94387.56
2022-12-04T14:58:42.983Z,94386.97
2022-12-04T15:01:29.364Z,94378.69
2022-12-04T15:03:58.832Z,94396.81
2022-12-04T15:06:30.519Z,94392.22
2022-12-04T15:09:02.869Z,94369.03
2022-12-04T15:11:29.351Z,94382.56
2022-12-04T15:14:04.948Z,94386.81
2022-12-04T15:16:32.317Z,94392.03
2022-12-04T15:18:59.961Z,94393.97
2022-12-04T15:21:40.190Z,94401.25
2022-12-04T15:24:18.196Z,94402.06
2022-12-04T15:26:44.931Z,94395.75
2022-12-04T15:29:18.617Z,94401.53
2022-12-04T15:31:48.143Z,94404.75
2022-12-04T15:34:17.277Z,94407.38
2022-12-04T15:36:49.509Z,94409.94
2022-12-04T15:39:19.795Z,94415.13
2022-12-04T15:41:46.377Z,94427.75
2022-12-04T15:44:27.776Z,94428.19
2022-12-04T15:46:55.919Z,94426.63
2022-12-04T15:49:29.874Z,94433.50
2022-12-04T15:52:27.794Z,94438.13
2022-12-04T15:55:02.630Z,94447.31
2022-12-04T15:57:42.700Z,94453.88
2022-12-04T16:00:21.303Z,94453.44
2022-12-04T16:02:48.301Z,94456.66
2022-12-04T16:05:31.839Z,94462.44
2022-12-04T16:08:00.577Z,94456.16
2022-12-04T16:10:30.009Z,94457.25
2022-12-04T16:12:59.375Z,94465.13
2022-12-04T16:15:31.932Z,94459.75
2022-12-04T16:17:58.654Z,94454.91
2022-12-04T16:20:27.824Z,94455.56
2022-12-04T16:22:54.769Z,94461.56
2022-12-04T16:25:21.354Z,94462.38
2022-12-04T16:27:47.834Z,94465.72
2022-12-04T16:30:14.671Z,94465.41
2022-12-04T16:32:41.372Z,94459.66
2022-12-04T16:35:13.721Z,94459.94
2022-12-04T16:37:40.227Z,94445.75
2022-12-04T16:40:07.308Z,94444.22
2022-12-04T16:42:33.869Z,94452.47
2022-12-04T16:45:00.545Z,94465.13
2022-12-04T16:47:27.235Z,94459.84
2022-12-04T16:49:53.772Z,94470.19
2022-12-04T16:52:20.598Z,94468.00
2022-12-04T16:54:47.305Z,94478.00
2022-12-04T16:57:13.830Z,94478.06
2022-12-04T16:59:40.350Z,94491.03
2022-12-04T17:02:16.025Z,94505.91
2022-12-04T17:04:42.840Z,94502.88
2022-12-04T17:07:10.133Z,94510.06
2022-12-04T17:09:36.970Z,94524.50
2022-12-04T17:12:03.624Z,94525.81
2022-12-04T17:14:30.245Z,94528.66
2022-12-04T17:16:56.747Z,94526.50
2022-12-04T17:19:27.520Z,94530.50
2022-12-04T17:21:54.003Z,94535.66
2022-12-04T17:24:20.633Z,94536.34
2022-12-04T17:26:47.993Z,94545.13
2022-12-04T17:29:14.557Z,94547.56
2022-12-04T17:31:41.119Z,94545.06
2022-12-04T17:34:09.954Z,94547.47
2022-12-04T17:36:36.502Z,94552.59
2022-12-04T17:39:03.587Z,94566.13
2022-12-04T17:41:30.153Z,94561.53
2022-12-04T17:43:59.589Z,94559.41
2022-12-04T17:46:26.222Z,94562.53
2022-12-04T17:48:55.709Z,94557.34
2022-12-04T17:51:24.978Z,94562.84
2022-12-04T17:53:52.153Z,94555.38
2022-12-04T17:56:21.461Z,94550.34
2022-12-04T17:58:48.677Z,94559.81
2022-12-04T18:01:17.861Z,94552.59
2022-12-04T18:03:49.673Z,94559.25
2022-12-04T18:06:17.662Z,94563.25
2022-12-04T18:08:49.751Z,94569.91
2022-12-04T18:11:17.799Z,94587.88
2022-12-04T18:13:44.340Z,94591.91
2022-12-04T18:16:11.276Z,94582.91
2022-12-04T18:18:38.229Z,94585.94
2022-12-04T18:21:11.026Z,94582.06
2022-12-04T18:23:38.610Z,94553.66
2022-12-04T18:26:05.102Z,94549.44
2022-12-04T18:28:31.902Z,94539.78
2022-12-04T18:31:06.202Z,94544.88
2022-12-04T18:33:34.114Z,94549.94
2022-12-04T18:36:01.021Z,94567.72
2022-12-04T18:38:31.953Z,94580.59
2022-12-04T18:41:06.689Z,94597.53
2022-12-04T18:43:34.610Z,94599.75
2022-12-04T18:46:07.311Z,94595.31
2022-12-04T18:48:35.053Z,94604.44
2022-12-04T18:51:02.489Z,94618.75
2022-12-04T18:53:30.458Z,94622.59
2022-12-04T18:56:01.975Z,94620.56
2022-12-04T18:58:28.533Z,94614.53
2022-12-04T19:00:55.155Z,94604.44
2022-12-04T19:03:21.665Z,94620.63
2022-12-04T19:05:51.502Z,94623.63
2022-12-04T19:08:18.102Z,94618.34
2022-12-04T19:10:44.705Z,94631.84
2022-12-04T19:13:11.205Z,94639.56
2022-12-04T19:15:44.537Z,94638.75
2022-12-04T19:18:11.634Z,94633.56
2022-12-04T19:20:42.724Z,94635.38
2022-12-04T19:23:09.296Z,94659.59
2022-12-04T19:25:35.820Z,94662.44
2022-12-04T19:28:03.524Z,94661.59
2022-12-04T19:30:30.162Z,94673.88
2022-12-04T19:32:57.006Z,94678.06
2022-12-04T19:35:23.601Z,94688.28
2022-12-04T19:37:56.301Z,94687.75
2022-12-04T19:40:22.862Z,94675.88
2022-12-04T19:42:49.397Z,94682.91
2022-12-04T19:45:15.949Z,94682.94
2022-12-04T19:47:42.426Z,94690.75
2022-12-04T19:50:09.353Z,94690.72
2022-12-04T19:52:35.883Z,94689.22
2022-12-04T19:55:02.533Z,94683.97
2022-12-04T19:57:29.073Z,94678.19
2022-12-04T19:59:55.657Z,94671.97
2022-12-04T20:02:22.196Z,94671.50
2022-12-04T20:04:48.876Z,94674.50
2022-12-04T20:07:15.377Z,94683.91
2022-12-04T20:09:44.913Z,94683.38
2022-12-04T20:12:14.019Z,94665.50
2022-12-04T20:14:40.560Z,94675.25
2022-12-04T20:17:07.266Z,94691.91
2022-12-04T20:19:33.876Z,94686.91
2022-12-04T20:22:03.185Z,94678.88
2022-12-04T20:24:29.700Z,94676.84
2022-12-04T20:26:56.927Z,94679.34
2022-12-04T20:29:23.520Z,94686.91
2022-12-04T20:31:50.377Z,94684.31
2022-12-04T20:34:18.679Z,94699.97
2022-12-04T20:36:47.267Z,94703.19
2022-12-04T20:39:15.009Z,94710.31
2022-12-04T20:41:41.625Z,94713.72
2022-12-04T20:44:10.767Z,94724.16
2022-12-04T20:46:41.024Z,94723.81
2022-12-04T20:49:13.455Z,94741.53
2022-12-04T20:51:44.452Z,94756.09
2022-12-04T20:54:15.522Z,94762.94
2022-12-04T20:56:42.149Z,94766.81
2022-12-04T20:59:12.148Z,94780.22
2022-12-04T21:01:40.276Z,94764.16
2022-12-04T21:04:06.992Z,94763.28
2022-12-04T21:06:38.598Z,94770.72
2022-12-04T21:09:12.158Z,94774.09
2022-12-04T21:11:43.993Z,94793.75
2022-12-04T21:14:13.953Z,94808.63
2022-12-04T21:16:40.757Z,94814.44
2022-12-04T21:19:08.713Z,94819.34
2022-12-04T21:21:35.856Z,94830.56
2022-12-04T21:24:03.369Z,94829.44
2022-12-04T21:26:30.041Z,94844.97
2022-12-04T21:28:57.590Z,94844.00
2022-12-04T21:31:24.817Z,94833.69
2022-12-04T21:33:51.378Z,94847.41
2022-12-04T21:36:18.109Z,94858.09
2022-12-04T21:38:44.734Z,94866.09
2022-12-04T21:41:11.802Z,94868.53
2022-12-04T21:43:38.358Z,94865.25
2022-12-04T21:46:13.821Z,94834.56
2022-12-04T21:48:40.823Z,94832.59
2022-12-04T21:51:16.881Z,94818.91
2022-12-04T21:53:54.179Z,94810.97
2022-12-04T21:56:21.733Z,94806.41
2022-12-04T21:58:48.319Z,94804.84
2022-12-04T22:01:16.299Z,94801.91
2022-12-04T22:03:43.533Z,94805.75
2022-12-04T22:06:10.584Z,94794.84
2022-12-04T22:08:39.323Z,94804.84
2022-12-04T22:11:10.764Z,94814.44
2022-12-04T22:13:37.908Z,94810.28
2022-12-04T22:16:07.403Z,94820.84
2022-12-04T22:18:34.706Z,94814.63
2022-12-04T22:21:04.767Z,94817.50
2022-12-04T22:23:32.841Z,94815.69
2022-12-04T22:26:15.061Z,94823.38
2022-12-04T22:28:42.606Z,94825.41
2022-12-04T22:31:12.945Z,94838.13
2022-12-04T22:33:39.604Z,94850.00
2022-12-04T22:36:16.670Z,94839.88
2022-12-04T22:39:05.982Z,94848.75
2022-12-04T22:41:31.459Z,94843.53
2022-12-04T22:43:58.739Z,94846.91
2022-12-04T22:46:25.814Z,94846.28
2022-12-04T22:48:52.458Z,94854.84
2022-12-04T22:51:21.937Z,94865.78
2022-12-04T22:53:50.980Z,94851.63
2022-12-04T22:56:24.033Z,94872.91
2022-12-04T22:58:51.663Z,94861.78
2022-12-04T23:01:23.998Z,94864.19
2022-12-04T23:03:51.562Z,94867.84
2022-12-04T23:06:21.020Z,94871.69
2022-12-04T23:08:47.766Z,94860.16
2022-12-04T23:11:19.640Z,94859.59
2022-12-04T23:13:57.508Z,94862.19
2022-12-04T23:16:24.709Z,94854.31
2022-12-04T23:18:51.606Z,94863.63
2022-12-04T23:21:19.909Z,94861.41
2022-12-04T23:23:47.546Z,94863.81
2022-12-04T23:26:16.705Z,94863.59
2022-12-04T23:28:43.530Z,94861.81
2022-12-04T23:31:10.304Z,94857.72
2022-12-04T23:33:37.838Z,94869.25
2022-12-04T23:36:05.389Z,94860.53
2022-12-04T23:38:32.030Z,94870.25
2022-12-04T23:41:05.991Z,94866.59
2022-12-04T23:43:33.223Z,94870.03
2022-12-04T23:45:59.710Z,94865.00
2022-12-04T23:48:26.721Z,94868.22
2022-12-04T23:50:53.561Z,94857.91
2022-12-04T23:53:28.577Z,94866.59
2022-12-04T23:56:07.053Z,94871.22
2022-12-04T23:58:35.819Z,94877.09
